Time;durP1;ratioP1;P1;durP2;ratioP2;P2;SDS_P1;SDS_P2;PMS_P1;PMS_P2;Temp;Humidity;BMP_temperature;BMP_pressure;BME280_temperature;BME280_humidity;BME280_pressure;Samples;Min_cycle;Max_cycle;Signal;HPM_P1;HPM_P2
2022/02/02 00:00:41;;;;;;;12.45;5.43;;;;;;;-4.42;100.00;98127.91;4999846;28;20092;-63
2022/02/02 00:03:11;;;;;;;12.35;5.22;;;;;;;-4.29;100.00;98149.91;5013450;28;20047;-63
2022/02/02 00:08:24;;;;;;;13.15;5.25;;;;;;;-4.23;100.00;98146.06;5045117;28;20048;-62
2022/02/02 00:19:05;;;;;;;12.90;5.80;;;;;;;-4.32;100.00;98138.69;5015600;28;20443;-63
2022/02/02 00:24:09;;;;;;;11.02;5.18;;;;;;;-4.26;100.00;98147.09;5029599;28;20093;-63
2022/02/02 00:26:40;;;;;;;15.80;5.63;;;;;;;-4.31;100.00;98159.72;5029622;28;20056;-64
2022/02/02 00:29:12;;;;;;;13.02;5.32;;;;;;;-4.27;100.00;98163.88;5046704;28;20050;-63
2022/02/02 00:31:43;;;;;;;13.02;5.70;;;;;;;-4.30;100.00;98155.28;5014367;28;20420;-62
2022/02/02 00:34:14;;;;;;;10.82;4.40;;;;;;;-4.26;100.00;98160.28;5031619;28;20049;-62
2022/02/02 00:36:48;;;;;;;12.57;5.43;;;;;;;-4.43;100.00;98113.00;5014276;28;20487;-63
2022/02/02 00:39:14;;;;;;;11.93;5.20;;;;;;;-4.43;100.00;98126.19;5013700;28;20080;-63
2022/02/02 00:41:40;;;;;;;11.93;5.43;;;;;;;-4.31;100.00;98136.00;5029195;28;20049;-63
2022/02/02 00:44:06;;;;;;;12.52;6.00;;;;;;;-4.33;100.00;98145.78;5012940;28;20053;-64
2022/02/02 00:46:32;;;;;;;12.75;5.63;;;;;;;-4.34;100.00;98157.28;5029135;28;20504;-63
2022/02/02 00:49:04;;;;;;;12.63;5.47;;;;;;;-4.35;100.00;98155.59;5012693;28;20049;-61
2022/02/02 00:51:45;;;;;;;12.32;5.65;;;;;;;-4.27;100.00;98157.75;5013466;28;20045;-63
2022/02/02 00:54:12;;;;;;;12.35;5.10;;;;;;;-4.28;100.00;98146.31;5012722;28;20052;-62
2022/02/02 00:56:38;;;;;;;11.65;5.00;;;;;;;-4.25;100.00;98167.25;5028811;28;20081;-63
2022/02/02 00:59:05;;;;;;;12.18;5.32;;;;;;;-4.39;100.00;98135.59;5028864;28;20128;-62
2022/02/02 01:01:30;;;;;;;12.70;5.22;;;;;;;-4.22;100.00;98164.41;5012746;28;20050;-63
2022/02/02 01:03:56;;;;;;;11.65;5.22;;;;;;;-4.26;100.00;98165.56;5030757;28;20057;-63
2022/02/02 01:06:23;;;;;;;11.82;5.00;;;;;;;-4.30;100.00;98153.50;5029582;28;20092;-61
2022/02/02 01:19:39;;;;;;;14.13;5.50;;;;;;;-4.24;98.72;98184.78;5029187;28;20137;-63
2022/02/02 01:30:10;;;;;;;12.88;4.85;;;;;;;-4.25;97.55;98183.06;5019143;28;20053;-63
2022/02/02 01:32:36;;;;;;;11.38;4.80;;;;;;;-4.27;97.45;98182.34;5049341;28;20078;-63
2022/02/02 01:35:04;;;;;;;11.25;4.38;;;;;;;-4.28;97.14;98162.16;5032848;28;20069;-63
2022/02/02 01:37:31;;;;;;;11.60;4.97;;;;;;;-4.26;96.60;98165.56;5032619;28;20049;-62
2022/02/02 01:40:03;;;;;;;12.38;4.85;;;;;;;-4.33;96.64;98158.97;5032135;28;20064;-63
2022/02/02 01:42:37;;;;;;;12.07;5.10;;;;;;;-4.28;95.99;98159.50;5048612;28;20057;-62
2022/02/02 01:45:12;;;;;;;10.65;4.10;;;;;;;-4.24;95.33;98166.31;5015840;28;20061;-63
2022/02/02 01:47:49;;;;;;;12.18;5.85;;;;;;;-4.23;95.64;98170.63;5017304;28;20045;-63
2022/02/02 01:50:20;;;;;;;13.45;4.53;;;;;;;-4.29;95.27;98165.75;5017470;28;20131;-63
2022/02/02 01:53:25;;;;;;;11.00;4.15;;;;;;;-4.26;94.58;98160.28;5032261;28;20087;-63
2022/02/02 01:55:38;;;;;;;11.98;4.15;;;;;;;-4.21;94.86;98174.00;5028823;28;20467;-63
2022/02/02 02:00:34;;;;;;;12.02;4.88;;;;;;;-4.24;95.63;98163.69;5015627;28;20453;-62
2022/02/02 02:03:02;;;;;;;12.63;5.47;;;;;;;-4.29;95.15;98160.47;5015303;28;20045;-64
2022/02/02 02:05:27;;;;;;;10.95;3.83;;;;;;;-4.26;94.02;98170.81;5015629;28;20123;-63
2022/02/02 02:07:53;;;;;;;12.50;4.85;;;;;;;-4.29;93.98;98165.75;5015860;28;20045;-63
2022/02/02 02:10:21;;;;;;;12.18;4.18;;;;;;;-4.29;93.90;98171.00;5015704;28;20041;-62
2022/02/02 02:12:59;;;;;;;13.30;4.93;;;;;;;-4.40;93.74;98158.50;5048372;28;20135;-64
2022/02/02 02:15:29;;;;;;;11.75;5.30;;;;;;;-4.35;93.00;98171.41;5032363;28;20430;-61
2022/02/02 02:17:55;;;;;;;12.80;4.55;;;;;;;-4.33;93.49;98173.94;5033610;28;20057;-62
2022/02/02 02:20:21;;;;;;;13.48;5.43;;;;;;;-4.41;94.04;98171.78;5032199;28;20049;-62
2022/02/02 02:22:47;;;;;;;12.73;5.45;;;;;;;-4.42;94.06;98172.72;5015348;28;20144;-63
2022/02/02 02:25:24;;;;;;;13.93;4.85;;;;;;;-4.38;94.14;98177.72;5033131;28;20066;-63
2022/02/02 02:27:50;;;;;;;;;;;;;;;-4.33;94.04;98195.88;5015545;28;20147;-63
2022/02/02 02:30:28;;;;;;;12.65;4.80;;;;;;;-4.37;94.35;98189.09;5015276;28;19917;-64
2022/02/02 02:56:50;;;;;;;12.05;4.18;;;;;;;-4.52;90.62;98206.72;5030866;28;20052;-63
2022/02/02 02:59:29;;;;;;;14.25;5.18;;;;;;;-4.83;91.26;98164.69;5031098;28;20429;-62
2022/02/02 03:02:41;;;;;;;11.45;4.13;;;;;;;-4.54;91.03;98205.09;5000093;28;20041;-64
2022/02/02 03:29:55;;;;;;;11.07;3.95;;;;;;;-4.64;91.57;98247.88;5032185;28;20049;-63
2022/02/02 03:51:38;;;;;;;13.65;4.75;;;;;;;-4.88;93.19;98263.31;5030457;28;20099;-64
2022/02/02 03:54:27;;;;;;;12.25;5.22;;;;;;;-4.92;92.86;98261.81;5015521;28;20529;-63
2022/02/02 04:02:28;;;;;;;13.43;5.63;;;;;;;-4.95;92.56;98277.78;5013186;28;20417;-63
2022/02/02 04:05:20;;;;;;;10.13;3.95;;;;;;;-4.99;90.77;98276.28;5013525;28;20056;-63
2022/02/02 04:07:47;;;;;;;14.38;4.88;;;;;;;-5.00;91.47;98281.66;4999564;28;20132;-63
2022/02/02 04:10:12;;;;;;;12.27;4.82;;;;;;;-5.01;91.28;98286.06;5030860;28;20394;-63
2022/02/02 04:12:52;;;;;;;12.43;5.00;;;;;;;-5.03;90.08;98284.44;4997092;28;20057;-63
2022/02/02 04:54:10;;;;;;;12.23;4.60;;;;;;;-5.69;91.85;98312.66;5012429;28;20051;-64
2022/02/02 04:56:37;;;;;;;13.15;5.30;;;;;;;-5.69;91.89;98315.31;5029218;28;20061;-63
2022/02/02 05:02:28;;;;;;;12.52;5.10;;;;;;;-5.64;91.50;98318.53;5012501;28;20397;-63
2022/02/02 05:07:33;;;;;;;13.18;5.13;;;;;;;-5.64;92.57;98318.53;5028934;28;20101;-63
2022/02/02 05:10:12;;;;;;;13.70;5.18;;;;;;;-5.66;92.89;98328.31;5029108;28;20076;-63
2022/02/02 05:53:03;;;;;;;13.68;5.68;;;;;;;-5.42;92.99;98362.97;5025429;28;20053;-62
2022/02/02 05:55:49;;;;;;;13.50;6.20;;;;;;;-5.43;92.56;98365.69;5026878;28;20045;-64
2022/02/02 05:58:15;;;;;;;14.95;6.22;;;;;;;-5.86;93.04;98295.16;5005162;28;20055;-68
2022/02/02 06:00:41;;;;;;;15.13;6.28;;;;;;;-5.40;93.37;98370.78;5018230;28;20042;-63
2022/02/02 06:03:14;;;;;;;13.63;5.60;;;;;;;-5.36;93.22;98372.31;5020850;28;20046;-63
2022/02/02 06:05:42;;;;;;;13.35;5.15;;;;;;;-5.39;93.02;98373.31;5022960;28;20123;-64
2022/02/02 06:08:10;;;;;;;16.17;6.20;;;;;;;-5.79;92.97;98306.19;5009410;28;20393;-61
2022/02/02 06:10:38;;;;;;;12.57;5.35;;;;;;;-5.35;92.80;98374.00;5018085;28;20417;-59
2022/02/02 06:13:05;;;;;;;14.32;5.45;;;;;;;-5.37;93.53;98366.22;5031666;28;20096;-63
2022/02/02 06:15:32;;;;;;;13.55;5.32;;;;;;;-5.34;93.22;98370.44;5022941;28;20064;-61
2022/02/02 06:18:00;;;;;;;12.25;5.25;;;;;;;-5.30;93.46;98377.25;5014565;28;20556;-57
2022/02/02 06:20:26;;;;;;;16.02;6.18;;;;;;;-5.26;93.45;98381.44;5016003;28;20493;-59
2022/02/02 06:23:25;;;;;;;16.08;6.60;;;;;;;-5.27;92.81;98376.22;5030022;28;20056;-60
2022/02/02 06:25:53;;;;;;;14.10;5.57;;;;;;;-5.31;93.42;98370.28;5008600;28;20096;-61
2022/02/02 06:28:23;;;;;;;15.10;5.95;;;;;;;-5.25;93.82;98385.75;4997683;28;20046;-61
2022/02/02 06:30:57;;;;;;;13.50;6.22;;;;;;;-5.28;93.88;98380.66;5028193;28;20057;-61
2022/02/02 06:33:25;;;;;;;15.98;7.00;;;;;;;-5.22;93.77;98379.47;5012118;28;20147;-66
2022/02/02 06:35:52;;;;;;;16.52;7.60;;;;;;;-5.22;94.35;98390.84;5038501;28;20053;-64
2022/02/02 06:38:19;;;;;;;17.02;6.20;;;;;;;-5.17;94.40;98399.34;5015528;28;20116;-62
2022/02/02 06:40:46;;;;;;;15.05;5.60;;;;;;;-5.12;95.30;98392.06;5027458;28;20495;-63
2022/02/02 06:43:13;;;;;;;16.42;6.85;;;;;;;-5.03;95.03;98395.97;5016727;28;20409;-65
2022/02/02 06:45:40;;;;;;;17.13;7.88;;;;;;;-5.13;95.06;98397.38;5030102;28;20107;-63
2022/02/02 06:48:06;;;;;;;14.75;5.20;;;;;;;-5.06;95.62;98405.81;4997726;28;20096;-62
2022/02/02 06:50:36;;;;;;;13.57;5.70;;;;;;;-5.02;95.28;98417.88;5030675;28;20517;-63
2022/02/02 06:53:26;;;;;;;14.90;6.90;;;;;;;-5.05;96.63;98413.63;5011735;28;20049;-62
2022/02/02 06:56:16;;;;;;;17.60;7.78;;;;;;;-5.13;95.54;98403.50;5012394;28;20037;-63
2022/02/02 07:07:38;;;;;;;14.02;6.10;;;;;;;-5.16;96.45;98422.09;5016636;28;20128;-62
2022/02/02 07:13:11;;;;;;;16.52;6.88;;;;;;;-5.06;95.16;98448.81;5016063;28;20065;-64
2022/02/02 07:28:52;;;;;;;14.13;4.93;;;;;;;-4.80;94.16;98455.28;5025962;28;20136;-62
2022/02/02 07:31:35;;;;;;;15.85;6.43;;;;;;;-4.81;93.91;98458.88;5012301;28;20420;-64
2022/02/02 07:34:13;;;;;;;15.35;6.63;;;;;;;-4.85;93.56;98452.06;5027061;28;20106;-63
2022/02/02 07:36:42;;;;;;;13.35;5.72;;;;;;;-4.96;94.17;98438.63;5011775;28;20079;-61
2022/02/02 07:39:13;;;;;;;12.18;5.13;;;;;;;-4.77;93.06;98457.75;5026735;28;20049;-64
2022/02/02 07:41:44;;;;;;;12.25;4.68;;;;;;;-4.69;92.27;98458.16;5029558;28;20073;-63
2022/02/02 07:44:14;;;;;;;;;;;;;;;-4.81;91.79;98464.13;5029128;28;20091;-62
2022/02/02 07:46:53;;;;;;;12.43;5.40;;;;;;;-4.70;91.28;98460.91;5040733;28;20269;-62
2022/02/02 07:49:30;;;;;;;15.35;6.03;;;;;;;-4.82;91.87;98467.72;5023643;28;20128;-63
2022/02/02 07:51:57;;;;;;;12.85;4.80;;;;;;;-4.69;91.41;98468.72;5047776;28;20050;-61
2022/02/02 07:54:31;;;;;;;11.65;4.00;;;;;;;-4.73;91.06;98454.00;5043194;28;20058;-63
2022/02/02 07:56:58;;;;;;;10.25;4.05;;;;;;;-4.75;90.33;98469.06;5052274;28;20053;-62
2022/02/02 08:02:08;;;;;;;11.80;4.63;;;;;;;-4.65;90.01;98488.69;5015277;28;20049;-63
2022/02/02 08:04:35;;;;;;;11.88;4.30;;;;;;;-4.73;90.21;98479.53;5012828;28;20562;-63
2022/02/02 08:07:01;;;;;;;10.57;3.80;;;;;;;-4.39;89.51;98489.03;5011755;28;20053;-63
2022/02/02 08:09:39;;;;;;;13.52;5.13;;;;;;;-4.36;89.58;98486.22;5039551;28;20412;-63
2022/02/02 08:12:14;;;;;;;14.02;5.05;;;;;;;-4.47;88.84;98478.06;5001707;28;20626;-62
2022/02/02 08:14:41;;;;;;;10.55;4.03;;;;;;;-4.25;88.23;98489.09;5028589;28;20386;-60
2022/02/02 08:17:07;;;;;;;11.60;4.68;;;;;;;-4.39;87.61;98475.84;4995635;28;20053;-63
2022/02/02 08:19:33;;;;;;;11.27;3.70;;;;;;;-4.28;87.54;98494.53;4995762;28;20103;-63
2022/02/02 08:21:59;;;;;;;13.45;3.92;;;;;;;-4.24;87.40;98501.38;5020825;28;20054;-63
2022/02/02 08:24:27;;;;;;;11.90;4.93;;;;;;;-4.41;88.11;98504.09;5007118;28;20060;-63
2022/02/02 08:26:54;;;;;;;12.23;3.83;;;;;;;-4.37;88.74;98503.00;5006713;28;20046;-63
2022/02/02 08:29:22;;;;;;;10.82;3.97;;;;;;;-4.41;87.46;98504.09;5010911;28;20081;-62
2022/02/02 08:31:48;;;;;;;12.43;4.68;;;;;;;-4.44;87.65;98509.53;5010820;28;20054;-63
2022/02/02 08:34:14;;;;;;;13.02;5.25;;;;;;;-4.40;88.00;98511.91;4992426;28;20050;-63
2022/02/02 08:36:41;;;;;;;12.27;3.65;;;;;;;-4.34;87.94;98509.88;5026065;28;20049;-63
2022/02/02 08:42:03;;;;;;;11.30;4.25;;;;;;;-4.27;86.83;98512.09;5008599;28;20053;-63
2022/02/02 08:44:41;;;;;;;11.23;4.97;;;;;;;-4.29;86.90;98518.38;5009043;28;20050;-63
2022/02/02 08:47:09;;;;;;;10.50;3.92;;;;;;;-4.23;87.69;98525.97;5012377;28;20072;-63
2022/02/02 08:49:42;;;;;;;13.80;5.32;;;;;;;-4.28;87.17;98526.19;4994648;28;20099;-62
2022/02/02 08:52:09;;;;;;;11.88;4.25;;;;;;;-4.26;86.85;98526.97;4994734;28;20505;-63
2022/02/02 08:55:01;;;;;;;12.02;4.53;;;;;;;-4.43;86.81;98516.50;4995341;28;20512;-63
2022/02/02 09:00:14;;;;;;;12.55;4.43;;;;;;;-4.50;88.61;98523.06;5010842;28;20048;-63
2022/02/02 09:02:53;;;;;;;11.07;4.25;;;;;;;-4.47;87.21;98531.66;5001050;28;20140;-63
2022/02/02 09:05:28;;;;;;;10.93;4.03;;;;;;;-4.42;88.13;98534.91;5027388;28;20552;-63
2022/02/02 09:07:55;;;;;;;11.70;5.00;;;;;;;-4.49;87.77;98532.69;5032440;28;20515;-63
2022/02/02 09:20:00;;;;;;;11.02;5.05;;;;;;;-4.48;87.79;98544.94;5011647;28;20044;-63
2022/02/02 09:24:06;;;;;;;10.85;4.70;;;;;;;-4.18;87.20;98537.94;5021780;28;20049;-63
2022/02/02 09:32:37;;;;;;;9.55;3.25;;;;;;;-4.18;84.55;98543.22;5025437;28;20057;-63
2022/02/02 09:35:04;;;;;;;9.30;3.13;;;;;;;-4.00;84.15;98546.59;5030204;28;20507;-65
2022/02/02 09:37:30;;;;;;;8.50;2.83;;;;;;;-3.88;83.70;98545.91;4992536;28;20046;-68
2022/02/02 09:40:10;;;;;;;10.85;3.70;;;;;;;-4.01;84.08;98541.41;5030697;28;20202;-65
2022/02/02 09:42:36;;;;;;;10.00;3.80;;;;;;;-4.09;84.09;98546.28;5014725;28;20129;-63
2022/02/02 09:45:09;;;;;;;11.68;3.95;;;;;;;-4.23;83.94;98534.72;5027290;28;20471;-64
2022/02/02 09:47:44;;;;;;;10.65;3.80;;;;;;;-4.13;84.85;98551.75;5026931;28;20045;-68
2022/02/02 09:50:21;;;;;;;10.20;3.35;;;;;;;-4.09;82.67;98562.13;5014523;28;20411;-64
2022/02/02 09:52:55;;;;;;;11.77;3.97;;;;;;;-3.91;82.10;98553.16;5025342;28;20191;-64
2022/02/02 10:00:47;;;;;;;10.75;4.30;;;;;;;-4.17;82.19;98552.84;5005152;28;20053;-64
2022/02/02 10:03:34;;;;;;;11.05;3.85;;;;;;;-4.28;82.73;98520.06;5013685;28;20060;-64
2022/02/02 10:06:22;;;;;;;10.63;4.20;;;;;;;-4.03;82.46;98551.19;4997444;28;20041;-64
2022/02/02 10:09:08;;;;;;;9.35;2.83;;;;;;;-3.93;80.66;98557.66;5012578;28;20049;-63
2022/02/02 10:14:23;;;;;;;10.25;3.80;;;;;;;-3.94;81.15;98553.34;5009511;28;20049;-64
2022/02/02 10:16:50;;;;;;;9.90;3.67;;;;;;;-3.83;80.56;98558.00;5013121;28;20049;-63
2022/02/02 10:19:20;;;;;;;10.02;3.40;;;;;;;-3.77;80.81;98566.38;5011321;28;20069;-64
2022/02/02 10:21:46;;;;;;;;;;;;;;;-3.76;81.66;98570.75;5028655;28;20601;-64
2022/02/02 10:24:12;;;;;;;11.23;3.42;;;;;;;-3.76;81.17;98560.19;5011402;28;20015;-64
2022/02/02 10:26:51;;;;;;;10.52;3.60;;;;;;;-3.86;81.53;98559.00;5011332;28;20110;-63
2022/02/02 10:29:18;;;;;;;10.02;3.50;;;;;;;-3.64;82.07;98553.34;5012036;28;20046;-64
2022/02/02 10:31:48;;;;;;;10.93;3.30;;;;;;;-3.52;80.51;98554.41;5030106;28;20072;-63
2022/02/02 10:34:16;;;;;;;13.07;3.83;;;;;;;-3.29;79.80;98553.91;5013580;28;20145;-63
2022/02/02 10:36:43;;;;;;;9.93;4.18;;;;;;;-3.07;78.19;98560.53;5024299;28;20161;-64
2022/02/02 10:39:13;;;;;;;10.07;2.97;;;;;;;-2.08;73.62;98554.31;5011967;28;20152;-64
2022/02/02 10:41:50;;;;;;;9.48;3.47;;;;;;;-1.29;70.25;98556.09;5028235;28;20042;-63
2022/02/02 10:44:19;;;;;;;;;;;;;;;-1.46;69.36;98553.75;5012415;28;20103;-64
2022/02/02 10:52:14;;;;;;;10.73;3.80;;;;;;;-0.27;63.47;98544.56;5005813;28;20469;-64
2022/02/02 10:55:02;;;;;;;10.80;3.75;;;;;;;1.38;59.68;98550.72;5013486;28;20084;-64
2022/02/02 10:58:01;;;;;;;10.05;3.20;;;;;;;0.84;59.38;98554.03;5002072;28;20052;-64
2022/02/02 11:00:34;;;;;;;10.55;3.20;;;;;;;0.29;61.45;98544.88;5011433;28;20042;-65
2022/02/02 11:08:29;;;;;;;10.85;3.97;;;;;;;-1.59;68.86;98558.19;4982620;28;20045;-62
2022/02/02 11:10:58;;;;;;;11.32;3.25;;;;;;;-1.88;71.55;98560.94;5029200;28;20136;-61
2022/02/02 11:13:25;;;;;;;10.45;3.83;;;;;;;-2.27;72.67;98559.91;5029308;28;20063;-61
2022/02/02 11:15:56;;;;;;;10.77;4.22;;;;;;;-2.85;74.13;98560.94;5009884;28;20080;-59
2022/02/02 11:18:40;;;;;;;9.98;3.63;;;;;;;-3.03;75.19;98570.00;5014356;28;20045;-62
2022/02/02 11:21:11;;;;;;;10.27;3.45;;;;;;;-3.15;75.39;98568.91;5010880;28;20049;-64
2022/02/02 11:23:41;;;;;;;10.73;3.47;;;;;;;-3.10;76.36;98579.22;5028742;28;20056;-60
2022/02/02 11:26:07;;;;;;;10.93;3.47;;;;;;;-3.09;76.84;98580.94;5017511;28;20049;-61
2022/02/02 11:28:35;;;;;;;10.13;3.65;;;;;;;-3.23;76.49;98579.94;5009596;28;20415;-61
2022/02/02 11:31:03;;;;;;;8.23;2.70;;;;;;;-3.26;76.31;98574.00;5010691;28;20445;-57
2022/02/02 11:33:29;;;;;;;11.65;3.33;;;;;;;-3.25;76.83;98576.56;5012007;28;20196;-61
2022/02/02 11:35:57;;;;;;;11.75;3.95;;;;;;;-3.31;77.89;98587.50;5013764;28;20524;-60
2022/02/02 11:38:24;;;;;;;12.43;4.07;;;;;;;-3.35;77.99;98593.91;5009939;28;20148;-58
2022/02/02 11:43:48;;;;;;;12.73;3.80;;;;;;;-3.36;79.34;98594.84;5012119;28;20048;-61
2022/02/02 11:46:48;;;;;;;12.43;4.28;;;;;;;-3.24;80.03;98596.75;5013208;28;20053;-60
2022/02/02 11:49:19;;;;;;;11.45;5.00;;;;;;;-3.27;79.82;98599.56;5026856;28;20054;-60
2022/02/02 11:51:46;;;;;;;13.73;4.55;;;;;;;-3.29;80.58;98598.84;5041499;28;20084;-60
2022/02/02 11:54:17;;;;;;;12.00;4.65;;;;;;;-3.33;80.86;98593.78;5021166;28;20079;-60
2022/02/02 11:56:59;;;;;;;15.13;4.70;;;;;;;-3.40;80.75;98582.72;4991884;28;20046;-60
2022/02/02 11:59:59;;;;;;;15.05;4.70;;;;;;;-3.22;80.80;98609.88;5010662;28;20052;-61
2022/02/02 12:02:49;;;;;;;12.40;4.60;;;;;;;-3.35;81.41;98607.09;4985452;28;20481;-63
2022/02/02 12:08:10;;;;;;;11.55;4.43;;;;;;;-3.47;83.77;98611.31;5025694;28;20697;-60
2022/02/02 13:00:36;;;;;;;14.10;4.32;;;;;;;-3.44;86.41;98649.91;5009255;28;20537;-59
2022/02/02 13:03:04;;;;;;;14.35;4.60;;;;;;;-3.40;85.64;98647.03;4979803;28;20041;-60
2022/02/02 13:05:31;;;;;;;14.45;4.55;;;;;;;-3.36;85.83;98637.13;5019051;28;20049;-56
2022/02/02 13:08:00;;;;;;;12.57;4.55;;;;;;;-3.29;85.99;98643.75;5026437;28;20095;-61
2022/02/02 13:10:27;;;;;;;13.68;5.32;;;;;;;-3.40;85.65;98625.00;5012352;28;20095;-60
2022/02/02 13:13:13;;;;;;;12.00;4.03;;;;;;;-3.29;85.23;98638.47;4995449;28;20080;-62
2022/02/02 13:18:27;;;;;;;15.50;4.45;;;;;;;-3.33;85.73;98636.06;5007944;28;20057;-61
2022/02/02 13:26:27;;;;;;;14.73;5.50;;;;;;;-3.35;85.50;98659.97;5027118;28;20049;-61
2022/02/02 13:29:05;;;;;;;15.60;4.80;;;;;;;-3.37;85.60;98664.47;5040691;28;20064;-59
2022/02/02 13:34:26;;;;;;;15.93;4.90;;;;;;;-3.45;86.96;98669.34;5010891;28;20090;-58
2022/02/02 13:37:11;;;;;;;12.25;3.97;;;;;;;-3.44;86.81;98660.47;5021356;28;20058;-59
2022/02/02 13:51:29;;;;;;;13.25;5.25;;;;;;;-3.47;86.56;98673.88;4996459;28;20384;-60
2022/02/02 14:31:23;;;;;;;10.98;4.07;;;;;;;-3.58;89.74;98731.72;5025818;28;20046;-60
2022/02/02 14:33:53;;;;;;;14.63;5.88;;;;;;;-3.64;90.34;98733.78;5016527;28;20109;-59
2022/02/02 14:36:23;;;;;;;16.08;5.30;;;;;;;-3.64;90.70;98743.50;5025611;28;20497;-60
2022/02/02 14:39:04;;;;;;;14.27;5.20;;;;;;;-3.68;89.80;98729.59;5037398;28;20049;-63
2022/02/02 14:41:48;;;;;;;11.60;4.22;;;;;;;-3.63;87.17;98740.75;5028366;28;20518;-61
2022/02/02 14:44:23;;;;;;;19.25;5.32;;;;;;;-3.64;88.41;98731.13;5026698;28;20091;-61
2022/02/02 14:47:02;;;;;;;16.42;5.07;;;;;;;-3.62;85.05;98736.31;5011419;28;20049;-60
2022/02/02 14:49:41;;;;;;;13.20;4.78;;;;;;;-3.65;84.85;98720.66;5011401;28;20042;-60
2022/02/02 14:52:19;;;;;;;14.10;5.00;;;;;;;-3.57;84.44;98744.00;5012952;28;20057;-59
2022/02/02 15:27:28;;;;;;;9.60;3.38;;;;;;;-3.53;81.27;98777.25;5022642;28;20053;-60
2022/02/02 15:32:20;;;;;;;10.82;4.05;;;;;;;-3.59;81.79;98782.84;5010241;28;20125;-61
2022/02/02 15:34:49;;;;;;;15.05;4.93;;;;;;;-3.64;82.22;98781.31;4995898;28;20084;-59
2022/02/02 15:39:56;;;;;;;12.10;4.53;;;;;;;-3.84;83.79;98786.81;5030305;28;20079;-59
2022/02/02 15:42:35;;;;;;;15.30;6.00;;;;;;;-3.88;85.02;98787.91;4992922;28;20431;-60
2022/02/02 15:58:53;;;;;;;12.75;4.40;;;;;;;-4.29;90.30;98788.31;4998453;28;20057;-65
2022/02/02 16:02:29;;;;;;;12.57;4.28;;;;;;;-4.41;91.19;98786.34;4985636;28;20042;-64
2022/02/02 16:04:21;;;;;;;13.25;4.80;;;;;;;-4.45;91.75;98782.16;5013668;28;20100;-66
2022/02/02 16:06:48;;;;;;;15.10;5.55;;;;;;;-4.58;92.37;98781.06;5040789;28;20100;-66
2022/02/02 16:09:24;;;;;;;14.35;5.57;;;;;;;-4.55;92.90;98796.72;5018588;28;20033;-65
2022/02/02 16:12:05;;;;;;;12.77;4.75;;;;;;;-4.65;93.31;98791.91;5024637;28;20044;-64
2022/02/02 16:14:38;;;;;;;13.15;4.75;;;;;;;-4.59;92.93;98803.09;5000332;28;20079;-64
2022/02/02 16:17:19;;;;;;;13.60;5.10;;;;;;;-4.56;91.68;98810.84;5015720;28;20080;-59
2022/02/02 16:39:13;;;;;;;16.92;6.25;;;;;;;-4.81;93.09;98827.03;5030125;28;20087;-65
2022/02/02 16:44:24;;;;;;;14.57;5.47;;;;;;;-4.88;93.25;98829.13;5036540;28;20037;-62
2022/02/02 16:46:50;;;;;;;15.10;5.82;;;;;;;-4.95;93.06;98825.94;4992219;28;20461;-62
2022/02/02 16:49:16;;;;;;;17.77;6.32;;;;;;;-4.98;93.56;98835.75;5009458;28;20134;-63
2022/02/02 16:51:42;;;;;;;15.38;5.80;;;;;;;-5.00;93.54;98837.63;5024510;28;20053;-63
2022/02/02 16:54:16;;;;;;;14.95;6.68;;;;;;;-5.04;93.62;98838.72;5041724;28;20980;-63
2022/02/02 16:57:25;;;;;;;15.48;6.18;;;;;;;-5.08;93.57;98845.91;5021523;28;20042;-64
2022/02/02 17:34:39;;;;;;;16.40;4.80;;;;;;;-5.48;93.85;98858.31;5011512;28;20049;-63
2022/02/02 17:37:32;;;;;;;13.02;5.10;;;;;;;-5.56;93.87;98844.63;5001558;28;20128;-63
2022/02/02 17:40:09;;;;;;;14.65;5.28;;;;;;;-5.50;93.48;98869.84;4995797;28;20049;-63
2022/02/02 17:45:21;;;;;;;15.65;5.70;;;;;;;-5.61;93.80;98857.16;5023809;28;20044;-62
2022/02/02 18:12:17;;;;;;;13.25;5.53;;;;;;;-5.59;94.24;98871.97;5008271;28;20063;-62
2022/02/02 18:12:36;;;;;;;13.30;5.72;;;;;;;-5.68;94.66;98864.47;5025420;28;20045;-63
2022/02/02 18:20:31;;;;;;;15.93;5.00;;;;;;;-5.73;94.94;98869.13;5012317;28;20346;-60
2022/02/02 18:23:06;;;;;;;21.67;6.05;;;;;;;-5.85;95.35;98859.13;5033995;28;20058;-60
2022/02/02 18:28:26;;;;;;;14.57;5.85;;;;;;;-5.79;95.47;98877.28;5013879;28;20127;-62
2022/02/02 18:31:06;;;;;;;12.32;4.75;;;;;;;-5.87;95.70;98871.50;5005937;28;20050;-62
2022/02/02 18:54:34;;;;;;;19.70;6.63;;;;;;;-6.17;97.78;98890.38;5012456;28;20068;-61
2022/02/02 18:57:15;;;;;;;15.68;6.13;;;;;;;-6.14;97.58;98889.41;5025736;28;20046;-63
2022/02/02 20:09:48;;;;;;;20.95;9.13;;;;;;;-6.66;100.00;98918.69;5026770;28;20050;-64
2022/02/02 20:12:12;;;;;;;22.77;9.02;;;;;;;-6.78;100.00;98898.19;5008422;28;20045;-63
2022/02/02 20:14:38;;;;;;;21.73;8.13;;;;;;;-6.68;100.00;98917.91;5010709;28;20046;-62
2022/02/02 20:17:06;;;;;;;17.10;8.57;;;;;;;-6.75;100.00;98903.31;4993495;28;20057;-59
2022/02/02 20:19:32;;;;;;;21.38;8.27;;;;;;;-6.63;100.00;98921.19;5026717;28;20045;-56
2022/02/02 20:21:59;;;;;;;21.95;8.52;;;;;;;-6.64;100.00;98929.16;5025857;28;20543;-61
2022/02/02 20:24:34;;;;;;;22.40;8.88;;;;;;;-6.62;100.00;98936.09;5043317;28;20061;-59
2022/02/02 20:27:02;;;;;;;18.33;7.25;;;;;;;-6.64;100.00;98919.50;5011429;28;20037;-57
2022/02/02 20:29:27;;;;;;;24.25;8.23;;;;;;;-6.63;100.00;98918.56;4995492;28;20140;-59
2022/02/02 20:31:53;;;;;;;24.92;9.38;;;;;;;-6.70;100.00;98909.22;5009062;28;20137;-61
2022/02/02 20:34:19;;;;;;;19.38;8.55;;;;;;;-6.60;100.00;98928.13;5002335;28;20054;-61
2022/02/02 20:36:45;;;;;;;22.13;9.05;;;;;;;-6.58;100.00;98937.66;5013207;28;20045;-59
2022/02/02 20:39:22;;;;;;;22.08;8.40;;;;;;;-6.57;100.00;98922.75;5009197;28;20420;-60
2022/02/02 20:41:48;;;;;;;23.30;9.35;;;;;;;-6.56;100.00;98929.69;5023811;28;20037;-58
2022/02/02 20:44:23;;;;;;;19.27;8.57;;;;;;;-6.56;100.00;98934.97;5026206;28;20056;-60
2022/02/02 21:01:30;;;;;;;20.05;8.68;;;;;;;-6.69;100.00;98932.00;5011637;28;20037;-57
2022/02/02 21:07:09;;;;;;;;;;;;;;;-6.62;100.00;98950.97;5015982;28;20087;-59
2022/02/02 21:11:51;;;;;;;23.52;8.27;;;;;;;-6.65;100.00;98946.72;5029144;28;20556;-60
2022/02/02 21:14:20;;;;;;;22.65;8.73;;;;;;;-6.61;99.98;98953.56;5014739;28;20147;-58
2022/02/02 21:16:47;;;;;;;22.85;9.05;;;;;;;-6.64;100.00;98956.28;5062554;28;20103;-58
2022/02/02 21:19:23;;;;;;;21.30;8.48;;;;;;;-6.65;100.00;98957.22;5061669;28;20096;-59
2022/02/02 21:21:58;;;;;;;24.85;9.68;;;;;;;-6.68;100.00;98973.09;5045599;28;20470;-60
2022/02/02 21:27:17;;;;;;;22.55;9.73;;;;;;;-6.75;100.00;98961.13;5030376;28;20073;-60
2022/02/02 21:29:43;;;;;;;25.10;9.75;;;;;;;-6.76;100.00;98969.94;5029799;28;20061;-57
2022/02/02 21:32:10;;;;;;;24.45;9.77;;;;;;;-6.78;100.00;98966.50;5013088;28;20045;-57
2022/02/02 21:34:36;;;;;;;22.00;9.73;;;;;;;-6.80;100.00;98965.69;5029184;28;20045;-57
2022/02/02 21:37:05;;;;;;;24.60;8.93;;;;;;;-6.77;100.00;98972.59;5029290;28;20064;-61
2022/02/02 21:39:34;;;;;;;24.95;8.30;;;;;;;-6.75;100.00;98974.25;5046612;28;20049;-59
2022/02/02 21:42:00;;;;;;;24.15;9.50;;;;;;;-6.96;100.00;98947.06;5017182;28;20064;-61
2022/02/02 21:44:26;;;;;;;23.80;9.25;;;;;;;-6.78;100.00;98977.00;4999758;28;20045;-57
2022/02/02 21:46:53;;;;;;;25.52;10.45;;;;;;;-6.75;100.00;98987.41;5033269;28;20044;-62
2022/02/02 21:49:21;;;;;;;26.58;9.35;;;;;;;-6.74;100.00;98983.84;5032783;28;20129;-62
2022/02/02 21:52:02;;;;;;;26.13;9.98;;;;;;;-6.74;100.00;98983.00;5033407;28;20072;-61
2022/02/02 21:54:28;;;;;;;21.80;8.95;;;;;;;-6.73;100.00;98998.69;5018546;28;20048;-62
2022/02/02 21:56:56;;;;;;;25.02;9.93;;;;;;;-6.74;100.00;98978.59;5032828;28;20077;-60
2022/02/02 21:59:22;;;;;;;26.48;10.63;;;;;;;-6.71;99.77;98991.63;5032704;28;20041;-60
2022/02/02 22:01:47;;;;;;;25.67;9.52;;;;;;;-6.72;99.87;98987.28;5016478;28;20060;-57
2022/02/02 22:04:13;;;;;;;26.73;10.73;;;;;;;-6.81;99.61;98962.22;5016664;28;20046;-61
2022/02/02 22:06:39;;;;;;;21.67;9.68;;;;;;;-6.86;99.62;98953.66;5032613;28;20468;-58
2022/02/02 22:09:05;;;;;;;25.63;10.75;;;;;;;-6.79;99.83;98975.31;5049152;28;20485;-59
2022/02/02 22:11:31;;;;;;;21.73;8.95;;;;;;;-6.76;99.61;98980.44;5016308;28;20390;-60
2022/02/02 22:14:04;;;;;;;23.60;9.82;;;;;;;-6.85;99.27;98971.13;5016489;28;20045;-57
2022/02/02 22:16:30;;;;;;;27.10;9.98;;;;;;;-6.75;99.82;98991.81;5033571;28;20061;-59
2022/02/02 22:18:56;;;;;;;27.92;10.82;;;;;;;-6.81;99.71;98977.13;5033590;28;20095;-60